createdAt,value
2024-05-09T00:00:38.307Z,100.00
2024-05-09T00:01:22.130Z,100.00
2024-05-09T00:02:04.260Z,100.00
2024-05-09T00:02:46.236Z,100.00
2024-05-09T00:03:28.126Z,100.00
2024-05-09T00:04:10.020Z,100.00
2024-05-09T00:04:51.917Z,100.00
2024-05-09T00:05:33.829Z,100.00
2024-05-09T00:06:15.973Z,100.00
2024-05-09T00:06:57.838Z,100.00
2024-05-09T00:07:39.655Z,100.00
2024-05-09T00:08:21.622Z,100.00
2024-05-09T00:09:03.604Z,100.00
2024-05-09T00:09:45.446Z,100.00
2024-05-09T00:10:35.515Z,100.00
2024-05-09T00:11:20.819Z,100.00
2024-05-09T00:12:02.951Z,100.00
2024-05-09T00:12:44.886Z,100.00
2024-05-09T00:13:26.698Z,100.00
2024-05-09T00:14:08.545Z,100.00
2024-05-09T00:14:50.445Z,100.00
2024-05-09T00:15:33.314Z,100.00
2024-05-09T00:16:15.596Z,100.00
2024-05-09T00:16:57.384Z,100.00
2024-05-09T00:17:39.540Z,100.00
2024-05-09T00:18:21.757Z,100.00
2024-05-09T00:19:03.722Z,100.00
2024-05-09T00:19:46.786Z,100.00
2024-05-09T00:20:36.826Z,100.00
2024-05-09T00:21:21.805Z,100.00
2024-05-09T00:22:03.757Z,100.00
2024-05-09T00:22:45.612Z,100.00
2024-05-09T00:23:27.550Z,100.00
2024-05-09T00:24:09.738Z,100.00
2024-05-09T00:24:51.743Z,100.00
2024-05-09T00:25:33.582Z,100.00
2024-05-09T00:26:19.096Z,100.00
2024-05-09T00:27:00.915Z,100.00
2024-05-09T00:27:42.954Z,100.00
2024-05-09T00:28:25.848Z,100.00
2024-05-09T00:29:07.714Z,100.00
2024-05-09T00:29:49.540Z,100.00
2024-05-09T00:30:35.131Z,100.00
2024-05-09T00:31:19.001Z,100.00
2024-05-09T00:32:00.967Z,100.00
2024-05-09T00:32:42.900Z,100.00
2024-05-09T00:33:25.042Z,100.00
2024-05-09T00:34:07.220Z,100.00
2024-05-09T00:34:49.382Z,100.00
2024-05-09T00:35:31.388Z,100.00
2024-05-09T00:36:13.212Z,100.00
2024-05-09T00:36:54.990Z,100.00
2024-05-09T00:37:36.791Z,100.00
2024-05-09T00:38:18.704Z,100.00
2024-05-09T00:39:00.648Z,100.00
2024-05-09T00:39:42.464Z,100.00
2024-05-09T00:40:35.062Z,100.00
2024-05-09T00:41:21.099Z,100.00
2024-05-09T00:42:03.299Z,100.00
2024-05-09T00:42:46.849Z,100.00
2024-05-09T00:43:28.699Z,100.00
2024-05-09T00:44:10.542Z,100.00
2024-05-09T00:44:52.318Z,100.00
2024-05-09T00:45:35.226Z,100.00
2024-05-09T00:46:17.569Z,100.00
2024-05-09T00:46:59.622Z,100.00
2024-05-09T00:47:44.318Z,100.00
2024-05-09T00:48:27.072Z,100.00
2024-05-09T00:49:09.403Z,100.00
2024-05-09T00:49:51.394Z,100.00
2024-05-09T00:50:37.162Z,100.00
2024-05-09T00:51:20.171Z,100.00
2024-05-09T00:52:02.675Z,100.00
2024-05-09T00:52:46.235Z,100.00
2024-05-09T00:53:28.354Z,100.00
2024-05-09T00:54:10.198Z,100.00
2024-05-09T00:54:52.236Z,100.00
2024-05-09T00:55:36.035Z,100.00
2024-05-09T00:56:21.239Z,100.00
2024-05-09T00:57:04.496Z,100.00
2024-05-09T00:57:47.109Z,100.00
2024-05-09T00:58:30.309Z,100.00
2024-05-09T00:59:12.804Z,100.00
2024-05-09T00:59:55.502Z,100.00
2024-05-09T01:00:40.240Z,100.00
2024-05-09T01:01:24.785Z,100.00
2024-05-09T01:02:06.841Z,100.00
2024-05-09T01:02:48.872Z,100.00
2024-05-09T01:03:31.001Z,100.00
2024-05-09T01:04:13.787Z,100.00
2024-05-09T01:04:55.839Z,100.00
2024-05-09T01:05:39.580Z,100.00
2024-05-09T01:06:21.996Z,100.00
2024-05-09T01:07:04.254Z,100.00
2024-05-09T01:07:46.562Z,100.00
2024-05-09T01:08:28.531Z,100.00
2024-05-09T01:09:10.399Z,100.00
2024-05-09T01:09:52.227Z,100.00
2024-05-09T01:10:35.579Z,100.00
2024-05-09T01:11:18.448Z,100.00
2024-05-09T01:12:00.613Z,100.00
2024-05-09T01:12:42.558Z,100.00
2024-05-09T01:13:24.389Z,100.00
2024-05-09T01:14:06.501Z,100.00
2024-05-09T01:14:48.443Z,100.00
2024-05-09T01:15:30.319Z,100.00
2024-05-09T01:16:13.630Z,100.00
2024-05-09T01:16:55.666Z,100.00
2024-05-09T01:17:37.725Z,100.00
2024-05-09T01:18:20.159Z,100.00
2024-05-09T01:19:04.832Z,100.00
2024-05-09T01:19:46.895Z,100.00
2024-05-09T01:20:39.147Z,100.00
2024-05-09T01:21:23.969Z,100.00
2024-05-09T01:22:08.002Z,100.00
2024-05-09T01:22:52.338Z,100.00
2024-05-09T01:23:34.435Z,100.00
2024-05-09T01:24:16.616Z,100.00
2024-05-09T01:24:58.382Z,100.00
2024-05-09T01:25:40.334Z,100.00
2024-05-09T01:26:22.155Z,100.00
2024-05-09T01:27:04.265Z,100.00
2024-05-09T01:27:46.065Z,100.00
2024-05-09T01:28:27.924Z,100.00
2024-05-09T01:29:09.877Z,100.00
2024-05-09T01:29:51.648Z,100.00
2024-05-09T01:30:36.104Z,100.00
2024-05-09T01:31:19.418Z,100.00
2024-05-09T01:32:01.384Z,100.00
2024-05-09T01:32:43.623Z,100.00
2024-05-09T01:33:25.858Z,100.00
2024-05-09T01:34:07.955Z,100.00
2024-05-09T01:34:49.970Z,100.00
2024-05-09T01:35:32.044Z,100.00
2024-05-09T01:36:13.909Z,100.00
2024-05-09T01:36:55.766Z,100.00
2024-05-09T01:37:37.594Z,100.00
2024-05-09T01:38:19.917Z,100.00
2024-05-09T01:39:01.956Z,100.00
2024-05-09T01:39:43.718Z,100.00
2024-05-09T01:40:35.410Z,100.00
2024-05-09T01:41:20.299Z,100.00
2024-05-09T01:42:02.190Z,100.00
2024-05-09T01:42:44.435Z,100.00
2024-05-09T01:43:26.256Z,100.00
2024-05-09T01:44:08.080Z,100.00
2024-05-09T01:44:49.968Z,100.00
2024-05-09T01:45:31.853Z,100.00
2024-05-09T01:46:15.299Z,100.00
2024-05-09T01:46:57.084Z,100.00
2024-05-09T01:47:39.141Z,100.00
2024-05-09T01:48:21.638Z,100.00
2024-05-09T01:49:04.532Z,100.00
2024-05-09T01:49:46.443Z,100.00
2024-05-09T01:50:37.729Z,100.00
2024-05-09T01:51:22.901Z,100.00
2024-05-09T01:52:04.864Z,100.00
2024-05-09T01:52:46.625Z,100.00
2024-05-09T01:53:28.518Z,100.00
2024-05-09T01:54:10.324Z,100.00
2024-05-09T01:54:52.240Z,100.00
2024-05-09T01:55:34.030Z,100.00
2024-05-09T01:56:15.888Z,100.00
2024-05-09T01:56:57.839Z,100.00
2024-05-09T01:57:39.702Z,100.00
2024-05-09T01:58:22.575Z,100.00
2024-05-09T01:59:06.180Z,100.00
2024-05-09T01:59:47.945Z,100.00
2024-05-09T02:00:38.623Z,100.00
2024-05-09T02:01:23.495Z,100.00
2024-05-09T02:02:05.535Z,100.00
2024-05-09T02:02:47.636Z,100.00
2024-05-09T02:03:29.782Z,100.00
2024-05-09T02:04:12.066Z,100.00
2024-05-09T02:04:54.224Z,100.00
2024-05-09T02:05:36.194Z,100.00
2024-05-09T02:06:18.203Z,100.00
2024-05-09T02:07:00.072Z,100.00
2024-05-09T02:07:41.867Z,100.00
2024-05-09T02:08:23.728Z,100.00
2024-05-09T02:09:05.578Z,100.00
2024-05-09T02:09:47.691Z,100.00
2024-05-09T02:10:32.707Z,100.00
2024-05-09T02:11:15.264Z,100.00
2024-05-09T02:11:57.365Z,100.00
2024-05-09T02:12:40.126Z,100.00
2024-05-09T02:13:22.007Z,100.00
2024-05-09T02:14:03.807Z,100.00
2024-05-09T02:14:45.620Z,100.00
2024-05-09T02:15:27.813Z,100.00
2024-05-09T02:16:12.308Z,100.00
2024-05-09T02:16:54.159Z,100.00
2024-05-09T02:17:36.484Z,100.00
2024-05-09T02:18:20.640Z,100.00
2024-05-09T02:19:02.719Z,100.00
2024-05-09T02:19:44.607Z,100.00
2024-05-09T02:20:33.862Z,100.00
2024-05-09T02:21:18.286Z,100.00
2024-05-09T02:22:00.086Z,100.00
2024-05-09T02:22:41.893Z,100.00
2024-05-09T02:23:23.734Z,100.00
2024-05-09T02:24:06.056Z,100.00
2024-05-09T02:24:47.870Z,100.00
2024-05-09T02:25:29.980Z,100.00
2024-05-09T02:26:11.847Z,100.00
2024-05-09T02:26:53.643Z,100.00
2024-05-09T02:27:35.475Z,100.00
2024-05-09T02:28:17.272Z,100.00
2024-05-09T02:28:59.683Z,100.00
2024-05-09T02:29:43.215Z,100.00
2024-05-09T02:30:35.038Z,100.00
2024-05-09T02:31:21.376Z,100.00
2024-05-09T02:32:03.377Z,100.00
2024-05-09T02:32:45.355Z,100.00
2024-05-09T02:33:27.401Z,100.00
2024-05-09T02:34:09.457Z,100.00
2024-05-09T02:34:51.374Z,100.00
2024-05-09T02:35:33.634Z,100.00
2024-05-09T02:36:18.668Z,100.00
2024-05-09T02:37:00.831Z,100.00
2024-05-09T02:37:42.759Z,100.00
2024-05-09T02:38:24.720Z,100.00
2024-05-09T02:39:06.613Z,100.00
2024-05-09T02:39:48.431Z,100.00
2024-05-09T02:40:36.690Z,100.00
2024-05-09T02:41:20.773Z,100.00
2024-05-09T02:42:02.846Z,100.00
2024-05-09T02:42:44.807Z,100.00
2024-05-09T02:43:26.717Z,100.00
2024-05-09T02:44:08.862Z,100.00
2024-05-09T02:44:50.738Z,100.00
2024-05-09T02:45:32.560Z,100.00
2024-05-09T02:46:14.550Z,100.00
2024-05-09T02:46:56.349Z,100.00
2024-05-09T02:47:38.561Z,100.00
2024-05-09T02:48:20.653Z,100.00
2024-05-09T02:49:03.000Z,100.00
2024-05-09T02:49:45.018Z,100.00
2024-05-09T02:50:34.419Z,100.00
2024-05-09T02:51:20.665Z,100.00
2024-05-09T02:52:02.565Z,100.00
2024-05-09T02:52:44.486Z,100.00
2024-05-09T02:53:26.509Z,100.00
2024-05-09T02:54:09.975Z,100.00
2024-05-09T02:54:51.822Z,100.00
2024-05-09T02:55:34.320Z,100.00
2024-05-09T02:56:16.110Z,100.00
2024-05-09T02:56:57.874Z,100.00
2024-05-09T02:57:39.794Z,100.00
2024-05-09T02:58:21.602Z,100.00
2024-05-09T02:59:03.630Z,100.00
2024-05-09T02:59:45.477Z,100.00
2024-05-09T03:00:35.259Z,100.00
2024-05-09T03:01:21.382Z,100.00
2024-05-09T03:02:03.407Z,100.00
2024-05-09T03:02:45.493Z,100.00
2024-05-09T03:03:27.771Z,100.00
2024-05-09T03:04:09.815Z,100.00
2024-05-09T03:04:51.848Z,100.00
2024-05-09T03:05:33.835Z,100.00
2024-05-09T03:06:15.861Z,100.00
2024-05-09T03:06:57.679Z,100.00
2024-05-09T03:07:43.167Z,100.00
2024-05-09T03:08:25.109Z,100.00
2024-05-09T03:09:09.235Z,100.00
2024-05-09T03:09:51.027Z,100.00
2024-05-09T03:10:36.370Z,100.00
2024-05-09T03:11:24.513Z,100.00
2024-05-09T03:12:07.466Z,100.00
2024-05-09T03:12:49.513Z,100.00
2024-05-09T03:13:31.376Z,100.00
2024-05-09T03:14:17.069Z,100.00
2024-05-09T03:14:58.847Z,100.00
2024-05-09T03:15:40.636Z,100.00
2024-05-09T03:16:22.716Z,100.00
2024-05-09T03:17:04.780Z,100.00
2024-05-09T03:17:46.798Z,100.00
2024-05-09T03:18:28.930Z,100.00
2024-05-09T03:19:11.031Z,100.00
2024-05-09T03:19:52.998Z,100.00
2024-05-09T03:20:36.264Z,100.00
2024-05-09T03:21:18.922Z,100.00
2024-05-09T03:22:00.749Z,100.00
2024-05-09T03:22:42.518Z,100.00
2024-05-09T03:23:24.343Z,100.00
2024-05-09T03:24:10.764Z,100.00
2024-05-09T03:24:52.615Z,100.00
2024-05-09T03:25:34.630Z,100.00
2024-05-09T03:26:18.151Z,100.00
2024-05-09T03:27:00.084Z,100.00
2024-05-09T03:27:42.081Z,100.00
2024-05-09T03:28:23.859Z,100.00
2024-05-09T03:29:05.768Z,100.00
2024-05-09T03:29:47.585Z,100.00
2024-05-09T03:30:36.640Z,100.00
2024-05-09T03:31:23.550Z,100.00
2024-05-09T03:32:05.612Z,100.00
2024-05-09T03:32:47.737Z,100.00
2024-05-09T03:33:29.914Z,100.00
2024-05-09T03:34:12.326Z,100.00
2024-05-09T03:34:54.150Z,100.00
2024-05-09T03:35:36.015Z,100.00
2024-05-09T03:36:17.869Z,100.00
2024-05-09T03:36:59.622Z,100.00
2024-05-09T03:37:41.437Z,100.00
2024-05-09T03:38:23.290Z,100.00
2024-05-09T03:39:05.112Z,100.00
2024-05-09T03:39:46.876Z,100.00
2024-05-09T03:40:30.907Z,100.00
2024-05-09T03:41:13.251Z,100.00
2024-05-09T03:41:55.117Z,100.00
2024-05-09T03:42:41.743Z,100.00
2024-05-09T03:43:23.870Z,100.00
2024-05-09T03:44:05.766Z,100.00
2024-05-09T03:44:47.737Z,100.00
2024-05-09T03:45:29.477Z,100.00
2024-05-09T03:46:11.391Z,100.00
2024-05-09T03:46:53.281Z,100.00
2024-05-09T03:47:35.659Z,100.00
2024-05-09T03:48:17.807Z,100.00
2024-05-09T03:48:59.915Z,100.00
2024-05-09T03:49:41.756Z,100.00
2024-05-09T03:50:30.123Z,100.00
2024-05-09T03:51:15.801Z,100.00
2024-05-09T03:51:57.652Z,100.00
2024-05-09T03:52:40.388Z,100.00
2024-05-09T03:53:22.936Z,100.00
2024-05-09T03:54:04.914Z,100.00
2024-05-09T03:54:48.841Z,100.00
2024-05-09T03:55:31.120Z,100.00
2024-05-09T03:56:13.111Z,100.00
2024-05-09T03:56:55.093Z,100.00
2024-05-09T03:57:36.974Z,100.00
2024-05-09T03:58:19.210Z,100.00
2024-05-09T03:59:01.252Z,100.00
2024-05-09T03:59:43.104Z,100.00
2024-05-09T04:00:31.562Z,100.00
2024-05-09T04:01:19.446Z,100.00
2024-05-09T04:02:01.417Z,100.00
2024-05-09T04:02:47.313Z,100.00
2024-05-09T04:03:29.700Z,100.00
2024-05-09T04:04:11.648Z,100.00
2024-05-09T04:04:53.608Z,100.00
2024-05-09T04:05:35.627Z,100.00
2024-05-09T04:06:24.050Z,100.00
2024-05-09T04:07:05.866Z,100.00
2024-05-09T04:07:47.726Z,100.00
2024-05-09T04:08:29.626Z,100.00
2024-05-09T04:09:11.411Z,100.00
2024-05-09T04:09:53.200Z,100.00
2024-05-09T04:10:35.581Z,100.00
2024-05-09T04:11:17.723Z,100.00
2024-05-09T04:11:59.616Z,100.00
2024-05-09T04:12:41.443Z,100.00
2024-05-09T04:13:23.473Z,100.00
2024-05-09T04:14:05.353Z,100.00
2024-05-09T04:14:47.125Z,100.00
2024-05-09T04:15:28.945Z,100.00
2024-05-09T04:16:11.734Z,100.00
2024-05-09T04:16:53.540Z,100.00
2024-05-09T04:17:35.585Z,100.00
2024-05-09T04:18:18.142Z,100.00
2024-05-09T04:19:00.110Z,100.00
2024-05-09T04:19:41.959Z,100.00
2024-05-09T04:20:33.538Z,100.00
2024-05-09T04:21:20.328Z,100.00
2024-05-09T04:22:02.086Z,100.00
2024-05-09T04:22:43.897Z,100.00
2024-05-09T04:23:25.843Z,100.00
2024-05-09T04:24:07.690Z,100.00
2024-05-09T04:24:49.471Z,100.00
2024-05-09T04:25:34.091Z,100.00
2024-05-09T04:26:15.946Z,100.00
2024-05-09T04:26:57.748Z,100.00
2024-05-09T04:27:39.591Z,100.00
2024-05-09T04:28:21.641Z,100.00
2024-05-09T04:29:03.463Z,100.00
2024-05-09T04:29:45.326Z,100.00
2024-05-09T04:30:36.072Z,100.00
2024-05-09T04:31:20.906Z,100.00
2024-05-09T04:32:04.705Z,100.00
2024-05-09T04:32:46.828Z,100.00
2024-05-09T04:33:29.518Z,100.00
2024-05-09T04:34:11.655Z,100.00
2024-05-09T04:34:53.546Z,100.00
2024-05-09T04:35:35.579Z,100.00
2024-05-09T04:36:17.490Z,100.00
2024-05-09T04:36:59.274Z,100.00
2024-05-09T04:37:41.026Z,100.00
2024-05-09T04:38:22.916Z,100.00
2024-05-09T04:39:04.789Z,100.00
2024-05-09T04:39:46.555Z,100.00
2024-05-09T04:40:33.649Z,100.00
2024-05-09T04:41:17.932Z,100.00
2024-05-09T04:41:59.717Z,100.00
2024-05-09T04:42:41.658Z,100.00
2024-05-09T04:43:23.463Z,100.00
2024-05-09T04:44:05.222Z,100.00
2024-05-09T04:44:47.046Z,100.00
2024-05-09T04:45:28.872Z,100.00
2024-05-09T04:46:11.098Z,100.00
2024-05-09T04:46:52.947Z,100.00
2024-05-09T04:47:34.902Z,100.00
2024-05-09T04:48:17.310Z,100.00
2024-05-09T04:48:59.253Z,100.00
2024-05-09T04:49:42.374Z,100.00
2024-05-09T04:50:33.472Z,100.00
2024-05-09T04:51:19.280Z,100.00
2024-05-09T04:52:01.096Z,100.00
2024-05-09T04:52:42.935Z,100.00
2024-05-09T04:53:24.793Z,100.00
2024-05-09T04:54:08.478Z,100.00
2024-05-09T04:54:54.086Z,100.00
2024-05-09T04:55:36.768Z,100.00
2024-05-09T04:56:18.743Z,100.00
2024-05-09T04:57:00.607Z,100.00
2024-05-09T04:57:42.496Z,100.00
2024-05-09T04:58:24.283Z,100.00
2024-05-09T04:59:06.239Z,100.00
2024-05-09T04:59:49.232Z,100.00
2024-05-09T05:00:36.509Z,100.00
2024-05-09T05:01:20.851Z,100.00
2024-05-09T05:02:02.866Z,100.00
2024-05-09T05:02:44.842Z,100.00
2024-05-09T05:03:26.879Z,100.00
2024-05-09T05:04:09.208Z,100.00
2024-05-09T05:04:51.108Z,100.00
2024-05-09T05:05:33.134Z,100.00
2024-05-09T05:06:15.279Z,100.00
2024-05-09T05:06:58.358Z,100.00
2024-05-09T05:07:42.207Z,100.00
2024-05-09T05:08:24.022Z,100.00
2024-05-09T05:09:05.808Z,100.00
2024-05-09T05:09:47.561Z,100.00
2024-05-09T05:10:35.055Z,100.00
2024-05-09T05:11:19.102Z,100.00
2024-05-09T05:12:02.873Z,100.00
2024-05-09T05:13:03.472Z,100.00
2024-05-09T05:13:46.665Z,100.00
2024-05-09T05:14:28.669Z,100.00
2024-05-09T05:15:10.458Z,100.00
2024-05-09T05:15:56.077Z,100.00
2024-05-09T05:16:38.892Z,100.00
2024-05-09T05:17:20.811Z,100.00
2024-05-09T05:18:02.818Z,100.00
2024-05-09T05:18:44.830Z,100.00
2024-05-09T05:19:26.742Z,100.00
2024-05-09T05:20:12.700Z,100.00
2024-05-09T05:20:58.015Z,100.00
2024-05-09T05:21:39.881Z,100.00
2024-05-09T05:22:23.322Z,100.00
2024-05-09T05:23:08.745Z,100.00
2024-05-09T05:23:50.529Z,100.00
2024-05-09T05:24:32.337Z,100.00
2024-05-09T05:25:14.193Z,100.00
2024-05-09T05:25:56.118Z,100.00
2024-05-09T05:26:39.025Z,100.00
2024-05-09T05:27:20.800Z,100.00
2024-05-09T05:28:02.637Z,100.00
2024-05-09T05:28:44.504Z,100.00
2024-05-09T05:29:26.381Z,100.00
2024-05-09T05:30:14.682Z,100.00
2024-05-09T05:30:59.684Z,100.00
2024-05-09T05:31:41.593Z,100.00
2024-05-09T05:32:23.585Z,100.00
2024-05-09T05:33:06.909Z,100.00
2024-05-09T05:33:49.201Z,100.00
2024-05-09T05:34:31.543Z,100.00
2024-05-09T05:35:13.450Z,100.00
2024-05-09T05:35:55.816Z,100.00
2024-05-09T05:36:37.608Z,99.58
2024-05-09T05:37:19.397Z,99.60
2024-05-09T05:38:01.348Z,99.87
2024-05-09T05:38:43.699Z,97.26
2024-05-09T05:39:26.086Z,96.86
2024-05-09T05:40:11.895Z,96.53
2024-05-09T05:40:56.573Z,97.87
2024-05-09T05:41:38.488Z,99.58
2024-05-09T05:42:20.329Z,100.00
2024-05-09T05:43:02.776Z,100.00
2024-05-09T05:43:44.597Z,100.00
2024-05-09T05:44:26.423Z,100.00
2024-05-09T05:45:09.878Z,100.00
2024-05-09T05:45:51.840Z,100.00
2024-05-09T05:46:33.599Z,100.00
2024-05-09T05:47:15.585Z,100.00
2024-05-09T05:47:57.752Z,100.00
2024-05-09T05:48:39.851Z,100.00
2024-05-09T05:49:21.747Z,100.00
2024-05-09T05:50:07.213Z,100.00
2024-05-09T05:50:53.613Z,100.00
2024-05-09T05:51:35.413Z,100.00
2024-05-09T05:52:17.278Z,100.00
2024-05-09T05:52:59.090Z,100.00
2024-05-09T05:53:41.047Z,100.00
2024-05-09T05:54:22.952Z,100.00
2024-05-09T05:55:05.355Z,100.00
2024-05-09T05:55:47.319Z,100.00
2024-05-09T05:56:29.257Z,100.00
2024-05-09T05:57:11.116Z,100.00
2024-05-09T05:57:52.964Z,100.00
2024-05-09T05:58:34.766Z,100.00
2024-05-09T05:59:16.611Z,100.00
2024-05-09T05:59:58.416Z,100.00
2024-05-09T06:00:41.629Z,100.00
2024-05-09T06:01:24.255Z,100.00
2024-05-09T06:02:06.307Z,100.00
2024-05-09T06:02:48.178Z,100.00
2024-05-09T06:03:30.173Z,100.00
2024-05-09T06:04:12.245Z,100.00
2024-05-09T06:04:54.368Z,100.00
2024-05-09T06:05:36.957Z,100.00
2024-05-09T06:06:19.001Z,100.00
2024-05-09T06:07:00.837Z,100.00
2024-05-09T06:07:42.606Z,100.00
2024-05-09T06:08:27.125Z,100.00
2024-05-09T06:09:10.633Z,100.00
2024-05-09T06:09:52.437Z,100.00
2024-05-09T06:10:38.514Z,100.00
2024-05-09T06:11:22.377Z,100.00
2024-05-09T06:12:04.909Z,100.00
2024-05-09T06:12:46.771Z,100.00
2024-05-09T06:13:28.754Z,100.00
2024-05-09T06:14:10.667Z,100.00
2024-05-09T06:14:52.438Z,100.00
2024-05-09T06:15:34.982Z,100.00
2024-05-09T06:16:16.796Z,100.00
2024-05-09T06:16:59.185Z,100.00
2024-05-09T06:17:41.083Z,100.00
2024-05-09T06:18:23.376Z,100.00
2024-05-09T06:19:05.434Z,100.00
2024-05-09T06:19:47.516Z,100.00
2024-05-09T06:20:35.909Z,100.00
2024-05-09T06:21:19.819Z,100.00
2024-05-09T06:22:02.993Z,100.00
2024-05-09T06:22:44.821Z,100.00
2024-05-09T06:23:26.650Z,100.00
2024-05-09T06:24:08.556Z,100.00
2024-05-09T06:24:50.415Z,100.00
2024-05-09T06:25:32.380Z,100.00
2024-05-09T06:26:14.400Z,100.00
2024-05-09T06:26:56.280Z,100.00
2024-05-09T06:27:39.961Z,100.00
2024-05-09T06:28:21.731Z,100.00
2024-05-09T06:29:03.566Z,100.00
2024-05-09T06:29:45.463Z,100.00
2024-05-09T06:30:36.567Z,100.00
2024-05-09T06:31:21.413Z,100.00
2024-05-09T06:32:03.773Z,100.00
2024-05-09T06:32:45.820Z,100.00
2024-05-09T06:33:27.917Z,100.00
2024-05-09T06:34:10.622Z,100.00
2024-05-09T06:34:52.464Z,100.00
2024-05-09T06:35:34.472Z,100.00
2024-05-09T06:36:16.303Z,100.00
2024-05-09T06:36:58.191Z,100.00
2024-05-09T06:37:39.958Z,100.00
2024-05-09T06:38:21.784Z,100.00
2024-05-09T06:39:03.730Z,100.00
2024-05-09T06:39:46.043Z,100.00
2024-05-09T06:40:36.290Z,100.00
2024-05-09T06:41:21.052Z,100.00
2024-05-09T06:42:03.034Z,100.00
2024-05-09T06:42:44.811Z,100.00
2024-05-09T06:43:26.594Z,100.00
2024-05-09T06:44:09.547Z,100.00
2024-05-09T06:44:51.427Z,100.00
2024-05-09T06:45:33.410Z,100.00
2024-05-09T06:46:15.325Z,100.00
2024-05-09T06:46:59.773Z,100.00
2024-05-09T06:47:42.592Z,100.00
2024-05-09T06:48:24.681Z,100.00
2024-05-09T06:49:08.838Z,100.00
2024-05-09T06:49:50.789Z,100.00
2024-05-09T06:50:37.507Z,100.00
2024-05-09T06:51:21.415Z,100.00
2024-05-09T06:52:03.640Z,100.00
2024-05-09T06:52:48.243Z,100.00
2024-05-09T06:53:30.251Z,100.00
2024-05-09T06:54:12.433Z,100.00
2024-05-09T06:54:54.447Z,100.00
2024-05-09T06:55:37.136Z,100.00
2024-05-09T06:56:19.057Z,100.00
2024-05-09T06:57:00.949Z,100.00
2024-05-09T06:57:43.210Z,100.00
2024-05-09T06:58:25.425Z,100.00
2024-05-09T06:59:07.275Z,100.00
2024-05-09T06:59:49.324Z,100.00
2024-05-09T07:00:38.515Z,100.00
2024-05-09T07:01:22.759Z,100.00
2024-05-09T07:02:04.732Z,100.00
2024-05-09T07:02:46.948Z,100.00
2024-05-09T07:03:31.882Z,100.00
2024-05-09T07:04:13.920Z,100.00
2024-05-09T07:04:55.927Z,100.00
2024-05-09T07:05:37.974Z,100.00
2024-05-09T07:06:19.782Z,100.00
2024-05-09T07:07:01.645Z,100.00
2024-05-09T07:07:43.434Z,100.00
2024-05-09T07:08:25.294Z,100.00
2024-05-09T07:09:07.095Z,100.00
2024-05-09T07:09:49.138Z,100.00
2024-05-09T07:10:35.050Z,100.00
2024-05-09T07:11:18.113Z,100.00
2024-05-09T07:12:00.013Z,100.00
2024-05-09T07:12:41.889Z,100.00
2024-05-09T07:13:23.735Z,100.00
2024-05-09T07:14:06.006Z,100.00
2024-05-09T07:14:47.971Z,100.00
2024-05-09T07:15:29.783Z,100.00
2024-05-09T07:16:11.574Z,100.00
2024-05-09T07:16:53.578Z,100.00
2024-05-09T07:17:35.964Z,100.00
2024-05-09T07:18:20.386Z,100.00
2024-05-09T07:19:02.893Z,100.00
2024-05-09T07:19:45.043Z,100.00
2024-05-09T07:20:34.011Z,100.00
2024-05-09T07:21:17.201Z,100.00
2024-05-09T07:21:59.953Z,100.00
2024-05-09T07:22:41.997Z,100.00
2024-05-09T07:23:23.826Z,100.00
2024-05-09T07:24:06.193Z,100.00
2024-05-09T07:24:47.987Z,100.00
2024-05-09T07:25:30.500Z,100.00
2024-05-09T07:26:12.531Z,100.00
2024-05-09T07:26:54.738Z,100.00
2024-05-09T07:27:36.499Z,100.00
2024-05-09T07:28:20.411Z,100.00
2024-05-09T07:29:02.320Z,100.00
2024-05-09T07:29:44.151Z,100.00
2024-05-09T07:30:32.894Z,100.00
2024-05-09T07:31:16.211Z,100.00
2024-05-09T07:31:58.320Z,100.00
2024-05-09T07:32:40.347Z,100.00
2024-05-09T07:33:23.788Z,100.00
2024-05-09T07:34:06.604Z,100.00
2024-05-09T07:34:48.733Z,100.00
2024-05-09T07:35:31.217Z,100.00
2024-05-09T07:36:13.278Z,100.00
2024-05-09T07:36:55.108Z,100.00
2024-05-09T07:37:36.911Z,100.00
2024-05-09T07:38:19.058Z,100.00
2024-05-09T07:39:01.166Z,100.00
2024-05-09T07:39:43.091Z,100.00
2024-05-09T07:40:32.902Z,100.00
2024-05-09T07:41:18.279Z,100.00
2024-05-09T07:42:00.165Z,100.00
2024-05-09T07:42:41.980Z,100.00
2024-05-09T07:43:23.766Z,100.00
2024-05-09T07:44:05.580Z,100.00
2024-05-09T07:44:47.471Z,100.00
2024-05-09T07:45:45.405Z,100.00
2024-05-09T07:47:37.089Z,100.00
2024-05-09T07:50:53.457Z,100.00
2024-05-09T07:52:39.210Z,100.00
2024-05-09T07:53:22.050Z,100.00
2024-05-09T07:53:35.945Z,100.00
2024-05-09T07:54:03.472Z,100.00
2024-05-09T07:54:45.959Z,100.00
2024-05-09T07:55:28.073Z,99.27
2024-05-09T07:56:11.622Z,96.88
2024-05-09T07:56:54.307Z,95.41
2024-05-09T07:57:37.283Z,96.21
2024-05-09T07:58:19.256Z,96.91
2024-05-09T07:59:01.109Z,97.38
2024-05-09T07:59:42.968Z,97.06
2024-05-09T08:00:31.028Z,96.21
2024-05-09T08:01:14.016Z,96.70
2024-05-09T08:01:56.001Z,95.64
2024-05-09T08:02:37.918Z,94.84
2024-05-09T08:03:20.061Z,94.56
2024-05-09T08:04:02.025Z,94.22
2024-05-09T08:04:44.094Z,92.81
2024-05-09T08:05:26.224Z,85.72
2024-05-09T08:06:08.154Z,77.94
2024-05-09T08:06:50.231Z,76.09
2024-05-09T08:07:35.221Z,72.62
2024-05-09T08:08:17.115Z,79.73
2024-05-09T08:09:03.006Z,79.18
2024-05-09T08:09:49.633Z,82.56
2024-05-09T08:10:31.646Z,77.63
2024-05-09T08:11:13.729Z,75.95
2024-05-09T08:11:55.686Z,79.28
2024-05-09T08:12:37.577Z,81.06
2024-05-09T08:13:19.499Z,81.65
2024-05-09T08:14:01.429Z,71.32
2024-05-09T08:14:43.280Z,75.94
2024-05-09T08:15:25.115Z,74.92
2024-05-09T08:16:07.392Z,72.75
2024-05-09T08:16:49.363Z,72.24
2024-05-09T08:17:31.425Z,65.90
2024-05-09T08:18:13.390Z,68.49
2024-05-09T08:18:55.529Z,68.54
2024-05-09T08:19:37.734Z,68.51
2024-05-09T08:20:26.977Z,60.71
2024-05-09T08:21:12.972Z,59.66
2024-05-09T08:21:55.146Z,59.47
2024-05-09T08:22:37.034Z,61.51
2024-05-09T08:23:18.994Z,63.95
2024-05-09T08:24:00.871Z,63.48
2024-05-09T08:24:43.076Z,64.29
2024-05-09T08:25:24.976Z,64.50
2024-05-09T08:26:07.485Z,63.10
2024-05-09T08:26:49.357Z,62.85
2024-05-09T08:27:31.242Z,64.39
2024-05-09T08:28:13.378Z,63.03
2024-05-09T08:28:55.510Z,57.29
2024-05-09T08:29:37.498Z,59.20
2024-05-09T08:30:25.286Z,56.18
2024-05-09T08:31:14.577Z,55.58
2024-05-09T08:31:58.906Z,58.59
2024-05-09T08:32:41.646Z,58.03
2024-05-09T08:33:23.975Z,56.78
2024-05-09T08:34:08.909Z,55.74
2024-05-09T08:34:51.027Z,52.88
2024-05-09T08:35:33.168Z,53.85
2024-05-09T08:36:15.150Z,56.07
2024-05-09T08:36:59.669Z,56.29
2024-05-09T08:37:43.777Z,55.81
2024-05-09T08:38:25.868Z,55.93
2024-05-09T08:39:07.994Z,55.56
2024-05-09T08:39:50.499Z,57.23
2024-05-09T08:40:36.062Z,54.91
2024-05-09T08:41:19.478Z,53.89
2024-05-09T08:42:07.799Z,53.47
2024-05-09T08:42:52.609Z,54.58
2024-05-09T08:43:36.151Z,55.29
2024-05-09T08:44:20.454Z,54.49
2024-05-09T08:45:02.409Z,54.88
2024-05-09T08:45:47.000Z,55.73
2024-05-09T08:46:30.761Z,55.84
2024-05-09T08:47:14.070Z,52.93
2024-05-09T08:47:59.548Z,53.49
2024-05-09T08:48:44.169Z,53.79
2024-05-09T08:49:26.479Z,51.72
2024-05-09T08:50:23.470Z,52.72
2024-05-09T08:51:11.027Z,54.74
2024-05-09T08:51:53.355Z,54.53
2024-05-09T08:52:35.843Z,55.27
2024-05-09T08:53:18.109Z,55.54
2024-05-09T08:54:00.050Z,55.20
2024-05-09T08:54:42.017Z,52.75
2024-05-09T08:55:25.507Z,53.77
2024-05-09T08:56:11.259Z,53.43
2024-05-09T08:56:53.326Z,54.12
2024-05-09T08:57:36.449Z,55.40
2024-05-09T08:58:21.858Z,54.38
2024-05-09T08:59:06.814Z,52.08
2024-05-09T08:59:51.981Z,52.40
2024-05-09T09:00:37.172Z,53.55
2024-05-09T09:01:20.663Z,52.96
2024-05-09T09:02:04.724Z,53.07